Главная страница
METAR-TAF:

METAR-TAF

Аэропорты :

Нуакшот, Мавритания

широта: 18-18-36N, долгота: 015-58-11W, высота над уровнем моря: 3 м

Текущие метеонаблюдения

Эта сводка был подготовлена 20 минут назад, в 12:00 UTC
Ветер 13 Узел от восточно-северо-восточный
Температура 25°C
Влажность 21%
Давление 1018 hPa
Видимость: 6000 м

METAR: GQNO 151200Z 06013KT 6000 NSC 25/01 Q1018 NOSIG

Время: 12:20 (12:20 UTC)

Прогноз

Эта сводка был подготовлена 1 час и 20 минут назад, в 11:00 UTC
Прогноз действительный с 15-го 12 UTC до 16-го 18 UTC
Ветер 15 Узел от восточный
Видимость: 6000 м
Вероятность 30% :
временами
С 15-го 12 UTC до 15-го 18 UTC
Видимость: 3000 м
Низовая песчаная метель
временами
С 15-го 20 UTC до 16-го 02 UTC
Ветер 12 Узел от северный

TAF: GQNO 151100Z 1512/1618 08015KT 6000 NSC PROB30 TEMPO 1512/1518 3000 BLSA TEMPO 1520/1602 36012KT

Метеонаблюдения и прогнозы для более 4000 аэропортов (сводки METAR и TAF).

Имеющиеся станции представлены на карте желтыми и красными точками.

Чтобы увидеть название станции, наведите на нее мышь.

Затем щелкните, чтобы увидеть метеонаблюдения и метеопрогнозы.

Управление картой: чтобы увеличить масштаб, щелкните зеленые кнопки с черным крестиком; чтобы уменьшить масштаб, щелкните зеленую кнопку с тире; для просмотра соседних карт щелкайте зеленые стрелки.


METAR-TAF: